sensor_id;sensor_type;location;lat;lon;timestamp;pressure;altitude;pressure_sealevel;temperature;humidity
57628;BME280;43451;49.060;10.616;2023-03-26T00:01:27;96202.88;;;6.22;100.00
57628;BME280;43451;49.060;10.616;2023-03-26T00:03:53;96206.19;;;6.04;100.00
57628;BME280;43451;49.060;10.616;2023-03-26T00:06:21;96192.72;;;6.04;100.00
57628;BME280;43451;49.060;10.616;2023-03-26T00:08:47;96201.91;;;5.96;100.00
57628;BME280;43451;49.060;10.616;2023-03-26T00:11:13;96195.72;;;5.96;100.00
57628;BME280;43451;49.060;10.616;2023-03-26T00:13:40;96204.22;;;5.98;100.00
57628;BME280;43451;49.060;10.616;2023-03-26T00:16:08;96203.03;;;5.95;100.00
57628;BME280;43451;49.060;10.616;2023-03-26T00:18:33;96205.78;;;6.02;100.00
57628;BME280;43451;49.060;10.616;2023-03-26T00:21:00;96199.72;;;6.13;100.00
57628;BME280;43451;49.060;10.616;2023-03-26T00:23:26;96195.16;;;6.24;100.00
57628;BME280;43451;49.060;10.616;2023-03-26T00:25:52;96198.22;;;6.19;100.00
57628;BME280;43451;49.060;10.616;2023-03-26T00:28:18;96202.75;;;6.08;100.00
57628;BME280;43451;49.060;10.616;2023-03-26T00:30:55;96199.34;;;6.18;100.00
57628;BME280;43451;49.060;10.616;2023-03-26T00:33:21;96198.84;;;6.01;100.00
57628;BME280;43451;49.060;10.616;2023-03-26T00:35:50;96196.94;;;6.05;100.00
57628;BME280;43451;49.060;10.616;2023-03-26T00:38:15;96203.91;;;6.07;100.00
57628;BME280;43451;49.060;10.616;2023-03-26T00:40:41;96202.41;;;6.09;100.00
57628;BME280;43451;49.060;10.616;2023-03-26T00:43:08;96199.66;;;6.05;100.00
57628;BME280;43451;49.060;10.616;2023-03-26T00:45:34;96205.91;;;6.17;100.00
57628;BME280;43451;49.060;10.616;2023-03-26T00:47:59;96214.03;;;6.24;100.00
57628;BME280;43451;49.060;10.616;2023-03-26T00:50:24;96192.44;;;6.20;100.00
57628;BME280;43451;49.060;10.616;2023-03-26T00:52:50;96199.75;;;6.16;100.00
57628;BME280;43451;49.060;10.616;2023-03-26T00:55:15;96208.94;;;6.12;100.00
57628;BME280;43451;49.060;10.616;2023-03-26T00:57:41;96197.50;;;6.25;100.00
57628;BME280;43451;49.060;10.616;2023-03-26T01:00:11;96193.69;;;6.37;100.00
57628;BME280;43451;49.060;10.616;2023-03-26T01:02:39;96207.53;;;6.28;100.00
57628;BME280;43451;49.060;10.616;2023-03-26T01:07:49;96208.63;;;6.24;100.00
57628;BME280;43451;49.060;10.616;2023-03-26T01:10:15;96211.25;;;6.10;100.00
57628;BME280;43451;49.060;10.616;2023-03-26T01:12:41;96214.25;;;5.97;100.00
57628;BME280;43451;49.060;10.616;2023-03-26T01:15:08;96210.84;;;6.08;100.00
57628;BME280;43451;49.060;10.616;2023-03-26T01:17:33;96196.94;;;6.05;100.00
57628;BME280;43451;49.060;10.616;2023-03-26T01:22:35;96201.22;;;6.07;100.00
57628;BME280;43451;49.060;10.616;2023-03-26T01:25:01;96202.78;;;6.11;100.00
57628;BME280;43451;49.060;10.616;2023-03-26T01:29:54;96191.38;;;6.32;100.00
57628;BME280;43451;49.060;10.616;2023-03-26T01:42:55;96182.84;;;6.23;100.00
57628;BME280;43451;49.060;10.616;2023-03-26T01:45:27;96174.75;;;6.23;100.00
57628;BME280;43451;49.060;10.616;2023-03-26T01:47:54;96174.22;;;5.99;100.00
57628;BME280;43451;49.060;10.616;2023-03-26T01:50:20;96181.91;;;6.01;100.00
57628;BME280;43451;49.060;10.616;2023-03-26T01:52:46;96166.16;;;6.03;100.00
57628;BME280;43451;49.060;10.616;2023-03-26T01:55:11;96166.06;;;5.96;100.00
57628;BME280;43451;49.060;10.616;2023-03-26T02:03:14;96155.69;;;5.94;100.00
57628;BME280;43451;49.060;10.616;2023-03-26T02:05:22;96146.09;;;6.04;100.00
57628;BME280;43451;49.060;10.616;2023-03-26T02:12:49;96148.06;;;6.07;100.00
57628;BME280;43451;49.060;10.616;2023-03-26T02:15:15;96148.88;;;6.18;100.00
57628;BME280;43451;49.060;10.616;2023-03-26T02:17:41;96147.00;;;6.26;100.00
57628;BME280;43451;49.060;10.616;2023-03-26T02:20:07;96138.19;;;6.36;100.00
57628;BME280;43451;49.060;10.616;2023-03-26T02:22:34;96141.31;;;6.38;100.00
57628;BME280;43451;49.060;10.616;2023-03-26T02:25:05;96138.19;;;6.33;100.00
57628;BME280;43451;49.060;10.616;2023-03-26T02:27:30;96128.19;;;6.40;100.00
57628;BME280;43451;49.060;10.616;2023-03-26T02:29:57;96124.34;;;6.38;100.00
57628;BME280;43451;49.060;10.616;2023-03-26T02:32:23;96120.09;;;6.37;100.00
57628;BME280;43451;49.060;10.616;2023-03-26T02:34:48;96122.00;;;6.33;100.00
57628;BME280;43451;49.060;10.616;2023-03-26T02:37:15;96118.50;;;6.25;100.00
57628;BME280;43451;49.060;10.616;2023-03-26T02:39:42;96116.94;;;6.20;100.00
57628;BME280;43451;49.060;10.616;2023-03-26T02:42:08;96118.00;;;6.05;100.00
57628;BME280;43451;49.060;10.616;2023-03-26T02:44:33;96117.97;;;6.01;100.00
57628;BME280;43451;49.060;10.616;2023-03-26T02:46:59;96116.44;;;6.00;100.00
57628;BME280;43451;49.060;10.616;2023-03-26T02:49:24;96109.50;;;5.99;100.00
57628;BME280;43451;49.060;10.616;2023-03-26T02:51:50;96108.38;;;6.08;100.00
57628;BME280;43451;49.060;10.616;2023-03-26T02:54:20;96096.81;;;6.03;100.00
57628;BME280;43451;49.060;10.616;2023-03-26T02:56:45;96097.59;;;6.11;100.00
57628;BME280;43451;49.060;10.616;2023-03-26T02:59:10;96092.91;;;5.94;100.00
57628;BME280;43451;49.060;10.616;2023-03-26T03:01:36;96091.75;;;5.95;100.00
57628;BME280;43451;49.060;10.616;2023-03-26T03:04:06;96090.94;;;5.91;100.00
57628;BME280;43451;49.060;10.616;2023-03-26T03:06:32;96082.44;;;5.92;100.00
57628;BME280;43451;49.060;10.616;2023-03-26T03:08:57;96076.38;;;6.02;100.00
57628;BME280;43451;49.060;10.616;2023-03-26T03:11:23;96073.78;;;6.20;100.00
57628;BME280;43451;49.060;10.616;2023-03-26T03:13:51;96064.16;;;6.19;100.00
57628;BME280;43451;49.060;10.616;2023-03-26T03:18:44;96061.78;;;6.07;100.00
57628;BME280;43451;49.060;10.616;2023-03-26T03:21:11;96052.16;;;6.10;100.00
57628;BME280;43451;49.060;10.616;2023-03-26T03:23:36;96043.19;;;5.91;100.00
57628;BME280;43451;49.060;10.616;2023-03-26T03:26:02;96055.06;;;5.87;100.00
57628;BME280;43451;49.060;10.616;2023-03-26T03:28:27;96056.22;;;5.82;100.00
57628;BME280;43451;49.060;10.616;2023-03-26T03:30:53;96048.56;;;5.88;100.00
57628;BME280;43451;49.060;10.616;2023-03-26T03:33:21;96057.78;;;5.87;100.00
57628;BME280;43451;49.060;10.616;2023-03-26T03:35:47;96051.91;;;5.74;100.00
57628;BME280;43451;49.060;10.616;2023-03-26T03:38:14;96053.44;;;5.68;100.00
57628;BME280;43451;49.060;10.616;2023-03-26T03:40:39;96044.53;;;5.64;100.00
57628;BME280;43451;49.060;10.616;2023-03-26T03:43:05;96038.88;;;5.79;100.00
57628;BME280;43451;49.060;10.616;2023-03-26T03:45:30;96049.97;;;5.71;100.00
57628;BME280;43451;49.060;10.616;2023-03-26T03:47:55;96032.94;;;5.52;100.00
57628;BME280;43451;49.060;10.616;2023-03-26T03:50:21;96044.50;;;5.56;100.00
57628;BME280;43451;49.060;10.616;2023-03-26T03:52:46;96039.13;;;5.56;100.00
57628;BME280;43451;49.060;10.616;2023-03-26T03:55:11;96047.78;;;5.32;100.00
57628;BME280;43451;49.060;10.616;2023-03-26T03:57:38;96042.81;;;5.34;100.00
57628;BME280;43451;49.060;10.616;2023-03-26T04:00:04;96030.78;;;5.21;100.00
57628;BME280;43451;49.060;10.616;2023-03-26T04:02:32;96029.31;;;5.27;100.00
57628;BME280;43451;49.060;10.616;2023-03-26T04:04:58;96028.88;;;5.21;100.00
57628;BME280;43451;49.060;10.616;2023-03-26T04:07:25;96017.19;;;5.03;100.00
57628;BME280;43451;49.060;10.616;2023-03-26T04:09:50;96018.19;;;4.87;100.00
57628;BME280;43451;49.060;10.616;2023-03-26T04:12:16;96021.66;;;4.88;100.00
57628;BME280;43451;49.060;10.616;2023-03-26T04:14:41;96015.78;;;4.75;100.00
57628;BME280;43451;49.060;10.616;2023-03-26T04:17:07;96016.50;;;4.69;100.00
57628;BME280;43451;49.060;10.616;2023-03-26T04:19:32;96012.31;;;4.75;100.00
57628;BME280;43451;49.060;10.616;2023-03-26T04:21:57;96015.91;;;4.86;100.00
57628;BME280;43451;49.060;10.616;2023-03-26T04:24:26;96011.63;;;4.85;100.00
57628;BME280;43451;49.060;10.616;2023-03-26T04:26:52;96008.44;;;4.72;100.00
57628;BME280;43451;49.060;10.616;2023-03-26T04:29:17;96005.41;;;4.74;100.00
57628;BME280;43451;49.060;10.616;2023-03-26T04:31:45;96001.50;;;4.68;100.00
57628;BME280;43451;49.060;10.616;2023-03-26T04:34:23;95993.66;;;4.52;100.00
57628;BME280;43451;49.060;10.616;2023-03-26T04:36:49;96001.78;;;4.59;100.00
57628;BME280;43451;49.060;10.616;2023-03-26T04:39:15;96001.28;;;4.46;100.00
57628;BME280;43451;49.060;10.616;2023-03-26T04:41:41;95990.31;;;4.65;100.00
57628;BME280;43451;49.060;10.616;2023-03-26T04:44:06;95999.03;;;4.52;100.00
57628;BME280;43451;49.060;10.616;2023-03-26T04:46:32;95993.34;;;4.57;100.00
57628;BME280;43451;49.060;10.616;2023-03-26T04:48:59;95991.53;;;4.72;100.00
57628;BME280;43451;49.060;10.616;2023-03-26T04:51:26;95984.56;;;4.63;100.00
57628;BME280;43451;49.060;10.616;2023-03-26T04:53:58;95976.97;;;4.73;100.00
57628;BME280;43451;49.060;10.616;2023-03-26T04:59:09;95970.06;;;4.79;100.00
57628;BME280;43451;49.060;10.616;2023-03-26T05:01:38;95959.75;;;4.88;100.00
57628;BME280;43451;49.060;10.616;2023-03-26T05:04:04;95962.06;;;4.86;100.00
57628;BME280;43451;49.060;10.616;2023-03-26T05:06:29;95948.94;;;4.81;100.00
57628;BME280;43451;49.060;10.616;2023-03-26T05:08:58;95943.22;;;4.82;100.00
57628;BME280;43451;49.060;10.616;2023-03-26T05:11:24;95932.41;;;4.79;100.00
57628;BME280;43451;49.060;10.616;2023-03-26T05:13:49;95930.88;;;4.81;100.00
57628;BME280;43451;49.060;10.616;2023-03-26T05:16:14;95918.16;;;4.75;100.00
57628;BME280;43451;49.060;10.616;2023-03-26T05:18:40;95913.53;;;4.72;100.00
57628;BME280;43451;49.060;10.616;2023-03-26T05:21:05;95903.16;;;4.74;100.00
57628;BME280;43451;49.060;10.616;2023-03-26T05:23:31;95897.75;;;4.67;100.00
57628;BME280;43451;49.060;10.616;2023-03-26T05:25:56;95907.78;;;4.73;100.00
57628;BME280;43451;49.060;10.616;2023-03-26T05:28:21;95890.78;;;4.65;100.00
57628;BME280;43451;49.060;10.616;2023-03-26T05:30:49;95888.09;;;4.65;100.00
57628;BME280;43451;49.060;10.616;2023-03-26T05:33:17;95891.19;;;4.68;100.00
57628;BME280;43451;49.060;10.616;2023-03-26T05:35:43;95891.97;;;4.68;100.00
57628;BME280;43451;49.060;10.616;2023-03-26T05:38:08;95885.84;;;4.71;100.00
57628;BME280;43451;49.060;10.616;2023-03-26T05:40:34;95874.72;;;4.73;100.00
57628;BME280;43451;49.060;10.616;2023-03-26T05:43:00;95872.53;;;4.93;100.00
57628;BME280;43451;49.060;10.616;2023-03-26T05:45:25;95865.69;;;5.02;100.00
57628;BME280;43451;49.060;10.616;2023-03-26T05:47:50;95858.78;;;5.08;100.00
57628;BME280;43451;49.060;10.616;2023-03-26T05:50:18;95862.66;;;5.07;100.00
57628;BME280;43451;49.060;10.616;2023-03-26T05:52:43;95852.63;;;5.04;100.00
57628;BME280;43451;49.060;10.616;2023-03-26T05:55:09;95849.59;;;5.17;100.00
57628;BME280;43451;49.060;10.616;2023-03-26T05:57:34;95851.53;;;5.20;100.00
57628;BME280;43451;49.060;10.616;2023-03-26T06:00:00;95846.53;;;5.22;100.00
57628;BME280;43451;49.060;10.616;2023-03-26T06:02:25;95847.41;;;5.40;100.00
57628;BME280;43451;49.060;10.616;2023-03-26T06:04:50;95849.38;;;5.54;100.00
57628;BME280;43451;49.060;10.616;2023-03-26T06:07:16;95857.84;;;5.52;100.00
57628;BME280;43451;49.060;10.616;2023-03-26T06:09:42;95851.69;;;5.55;100.00
57628;BME280;43451;49.060;10.616;2023-03-26T06:12:08;95858.19;;;5.47;100.00
57628;BME280;43451;49.060;10.616;2023-03-26T06:14:34;95858.25;;;5.62;100.00
57628;BME280;43451;49.060;10.616;2023-03-26T06:17:00;95860.16;;;5.61;100.00
57628;BME280;43451;49.060;10.616;2023-03-26T06:19:25;95870.59;;;5.70;100.00
57628;BME280;43451;49.060;10.616;2023-03-26T06:21:50;95870.59;;;5.66;100.00
57628;BME280;43451;49.060;10.616;2023-03-26T06:24:16;95861.31;;;5.56;100.00
57628;BME280;43451;49.060;10.616;2023-03-26T06:26:43;95861.28;;;5.46;100.00
57628;BME280;43451;49.060;10.616;2023-03-26T06:29:08;95868.25;;;5.61;100.00
57628;BME280;43451;49.060;10.616;2023-03-26T06:31:33;95859.03;;;5.66;100.00
57628;BME280;43451;49.060;10.616;2023-03-26T06:33:59;95846.75;;;5.79;100.00
57628;BME280;43451;49.060;10.616;2023-03-26T06:36:24;95840.94;;;5.70;100.00
57628;BME280;43451;49.060;10.616;2023-03-26T06:38:49;95847.53;;;5.83;100.00
57628;BME280;43451;49.060;10.616;2023-03-26T06:41:15;95841.34;;;5.79;100.00
57628;BME280;43451;49.060;10.616;2023-03-26T06:43:40;95838.31;;;5.84;100.00
57628;BME280;43451;49.060;10.616;2023-03-26T06:46:05;95838.25;;;5.77;100.00
57628;BME280;43451;49.060;10.616;2023-03-26T06:48:31;95835.19;;;5.75;100.00
57628;BME280;43451;49.060;10.616;2023-03-26T06:50:56;95834.44;;;5.85;100.00
57628;BME280;43451;49.060;10.616;2023-03-26T06:53:22;95830.59;;;5.82;100.00
57628;BME280;43451;49.060;10.616;2023-03-26T06:55:48;95823.66;;;5.74;100.00
57628;BME280;43451;49.060;10.616;2023-03-26T06:58:13;95822.13;;;5.84;100.00
57628;BME280;43451;49.060;10.616;2023-03-26T07:00:39;95828.28;;;5.88;100.00
57628;BME280;43451;49.060;10.616;2023-03-26T07:03:10;95824.88;;;5.98;100.00
57628;BME280;43451;49.060;10.616;2023-03-26T07:05:36;95807.16;;;5.97;100.00
57628;BME280;43451;49.060;10.616;2023-03-26T07:08:02;95804.47;;;5.97;100.00
57628;BME280;43451;49.060;10.616;2023-03-26T07:10:27;95801.00;;;5.97;100.00
57628;BME280;43451;49.060;10.616;2023-03-26T07:12:52;95800.22;;;6.07;100.00
57628;BME280;43451;49.060;10.616;2023-03-26T07:15:18;95789.03;;;6.05;100.00
57628;BME280;43451;49.060;10.616;2023-03-26T07:17:43;95785.19;;;5.99;100.00
57628;BME280;43451;49.060;10.616;2023-03-26T07:20:09;95783.66;;;5.94;100.00
57628;BME280;43451;49.060;10.616;2023-03-26T07:22:35;95775.19;;;5.99;100.00
57628;BME280;43451;49.060;10.616;2023-03-26T07:25:00;95772.88;;;6.16;100.00
57628;BME280;43451;49.060;10.616;2023-03-26T07:46:40;95737.78;;;6.48;100.00
57628;BME280;43451;49.060;10.616;2023-03-26T07:49:08;95750.50;;;6.40;100.00
57628;BME280;43451;49.060;10.616;2023-03-26T07:51:36;95740.09;;;6.42;100.00
57628;BME280;43451;49.060;10.616;2023-03-26T07:54:01;95732.75;;;6.46;100.00
57628;BME280;43451;49.060;10.616;2023-03-26T08:04:37;95724.69;;;6.54;100.00
57628;BME280;43451;49.060;10.616;2023-03-26T08:06:47;95714.28;;;6.48;100.00
57628;BME280;43451;49.060;10.616;2023-03-26T08:11:53;95706.53;;;6.61;100.00
57628;BME280;43451;49.060;10.616;2023-03-26T08:19:43;95686.44;;;6.66;100.00
57628;BME280;43451;49.060;10.616;2023-03-26T08:27:16;95678.75;;;6.68;100.00
57628;BME280;43451;49.060;10.616;2023-03-26T08:29:50;95667.53;;;6.77;100.00
57628;BME280;43451;49.060;10.616;2023-03-26T08:32:19;95653.28;;;6.69;100.00
57628;BME280;43451;49.060;10.616;2023-03-26T08:34:46;95654.06;;;6.66;100.00
57628;BME280;43451;49.060;10.616;2023-03-26T08:37:12;95653.34;;;6.58;100.00
57628;BME280;43451;49.060;10.616;2023-03-26T08:39:38;95652.19;;;6.56;100.00
57628;BME280;43451;49.060;10.616;2023-03-26T08:47:59;95634.06;;;6.56;100.00
57628;BME280;43451;49.060;10.616;2023-03-26T08:50:31;95635.25;;;6.51;100.00
57628;BME280;43451;49.060;10.616;2023-03-26T08:52:56;95638.66;;;6.63;100.00
57628;BME280;43451;49.060;10.616;2023-03-26T08:55:40;95628.59;;;6.74;100.00
57628;BME280;43451;49.060;10.616;2023-03-26T09:08:46;95630.09;;;6.86;100.00
57628;BME280;43451;49.060;10.616;2023-03-26T09:11:22;95633.19;;;6.81;100.00
57628;BME280;43451;49.060;10.616;2023-03-26T09:16:25;95637.81;;;6.84;100.00
57628;BME280;43451;49.060;10.616;2023-03-26T09:24:19;95630.13;;;6.82;100.00
57628;BME280;43451;49.060;10.616;2023-03-26T09:40:15;95641.72;;;6.72;100.00
57628;BME280;43451;49.060;10.616;2023-03-26T09:42:47;95643.59;;;6.79;100.00
57628;BME280;43451;49.060;10.616;2023-03-26T09:53:38;95636.38;;;6.61;100.00
57628;BME280;43451;49.060;10.616;2023-03-26T09:56:30;95628.69;;;6.53;100.00
57628;BME280;43451;49.060;10.616;2023-03-26T09:58:55;95616.75;;;6.46;100.00
57628;BME280;43451;49.060;10.616;2023-03-26T10:01:29;95616.38;;;6.51;100.00
57628;BME280;43451;49.060;10.616;2023-03-26T10:09:21;95605.50;;;6.69;100.00
57628;BME280;43451;49.060;10.616;2023-03-26T10:14:42;95593.91;;;6.69;100.00
57628;BME280;43451;49.060;10.616;2023-03-26T10:17:19;95595.50;;;6.59;100.00
57628;BME280;43451;49.060;10.616;2023-03-26T10:20:11;95597.88;;;6.46;100.00
57628;BME280;43451;49.060;10.616;2023-03-26T10:25:28;95581.59;;;6.68;100.00
57628;BME280;43451;49.060;10.616;2023-03-26T10:28:02;95578.97;;;6.57;100.00
57628;BME280;43451;49.060;10.616;2023-03-26T10:30:36;95573.53;;;6.61;100.00
57628;BME280;43451;49.060;10.616;2023-03-26T10:41:16;95563.50;;;6.61;100.00
57628;BME280;43451;49.060;10.616;2023-03-26T10:46:23;95564.56;;;6.78;100.00
57628;BME280;43451;49.060;10.616;2023-03-26T10:53:57;95552.94;;;6.88;100.00
57628;BME280;43451;49.060;10.616;2023-03-26T10:58:56;95556.47;;;6.78;100.00
57628;BME280;43451;49.060;10.616;2023-03-26T11:03:53;95551.84;;;6.82;100.00
57628;BME280;43451;49.060;10.616;2023-03-26T11:11:45;95527.69;;;7.13;100.00
57628;BME280;43451;49.060;10.616;2023-03-26T11:17:27;95520.44;;;7.85;100.00
57628;BME280;43451;49.060;10.616;2023-03-26T11:19:51;95511.09;;;7.94;100.00
57628;BME280;43451;49.060;10.616;2023-03-26T11:33:10;95503.84;;;8.79;100.00
57628;BME280;43451;49.060;10.616;2023-03-26T11:35:39;95502.59;;;8.83;100.00
57628;BME280;43451;49.060;10.616;2023-03-26T11:38:10;95501.16;;;9.02;100.00
57628;BME280;43451;49.060;10.616;2023-03-26T11:40:38;95505.28;;;9.34;100.00
57628;BME280;43451;49.060;10.616;2023-03-26T11:43:09;95502.88;;;9.40;100.00
57628;BME280;43451;49.060;10.616;2023-03-26T11:45:45;95509.75;;;9.68;100.00
57628;BME280;43451;49.060;10.616;2023-03-26T11:48:25;95497.25;;;9.94;100.00
57628;BME280;43451;49.060;10.616;2023-03-26T11:50:57;95497.81;;;10.05;100.00
57628;BME280;43451;49.060;10.616;2023-03-26T11:53:29;95494.25;;;9.88;100.00
57628;BME280;43451;49.060;10.616;2023-03-26T12:00:54;95469.34;;;10.13;100.00
57628;BME280;43451;49.060;10.616;2023-03-26T12:03:19;95472.78;;;9.97;100.00
57628;BME280;43451;49.060;10.616;2023-03-26T12:05:46;95472.38;;;9.99;100.00
57628;BME280;43451;49.060;10.616;2023-03-26T12:08:33;95456.47;;;10.17;100.00
57628;BME280;43451;49.060;10.616;2023-03-26T12:10:59;95453.44;;;10.15;100.00
57628;BME280;43451;49.060;10.616;2023-03-26T12:15:56;95455.44;;;9.71;100.00
57628;BME280;43451;49.060;10.616;2023-03-26T12:18:22;95447.09;;;10.02;100.00
57628;BME280;43451;49.060;10.616;2023-03-26T12:20:52;95452.19;;;10.00;100.00
57628;BME280;43451;49.060;10.616;2023-03-26T12:26:10;95436.59;;;10.04;100.00
57628;BME280;43451;49.060;10.616;2023-03-26T12:28:45;95432.25;;;10.27;100.00
57628;BME280;43451;49.060;10.616;2023-03-26T12:31:11;95420.09;;;10.51;100.00
57628;BME280;43451;49.060;10.616;2023-03-26T12:34:02;95435.81;;;10.60;100.00
57628;BME280;43451;49.060;10.616;2023-03-26T12:36:30;95434.59;;;10.44;93.02
57628;BME280;43451;49.060;10.616;2023-03-26T12:38:57;95419.78;;;9.93;100.00
57628;BME280;43451;49.060;10.616;2023-03-26T12:41:35;95429.06;;;9.92;100.00
57628;BME280;43451;49.060;10.616;2023-03-26T12:44:37;95423.03;;;10.04;100.00
57628;BME280;43451;49.060;10.616;2023-03-26T12:49:56;95421.09;;;9.65;100.00
57628;BME280;43451;49.060;10.616;2023-03-26T12:57:40;95409.00;;;10.26;97.54
57628;BME280;43451;49.060;10.616;2023-03-26T13:00:12;95397.84;;;10.04;96.59
57628;BME280;43451;49.060;10.616;2023-03-26T13:10:49;95392.41;;;10.04;95.89
57628;BME280;43451;49.060;10.616;2023-03-26T13:15:48;95396.56;;;10.28;92.07
57628;BME280;43451;49.060;10.616;2023-03-26T13:26:08;95394.38;;;11.05;86.68
57628;BME280;43451;49.060;10.616;2023-03-26T13:31:49;95388.00;;;10.30;86.67
57628;BME280;43451;49.060;10.616;2023-03-26T13:34:03;95397.94;;;9.80;91.59
57628;BME280;43451;49.060;10.616;2023-03-26T13:44:50;95422.84;;;9.75;91.98
57628;BME280;43451;49.060;10.616;2023-03-26T13:47:19;95395.53;;;9.22;100.00
57628;BME280;43451;49.060;10.616;2023-03-26T13:49:54;95391.75;;;8.96;100.00
57628;BME280;43451;49.060;10.616;2023-03-26T13:54:58;95381.88;;;9.29;94.58
57628;BME280;43451;49.060;10.616;2023-03-26T13:57:37;95383.91;;;9.65;100.00
57628;BME280;43451;49.060;10.616;2023-03-26T14:00:09;95368.88;;;9.81;100.00
57628;BME280;43451;49.060;10.616;2023-03-26T14:02:38;95376.03;;;9.31;97.98
57628;BME280;43451;49.060;10.616;2023-03-26T14:05:08;95358.41;;;9.23;100.00
57628;BME280;43451;49.060;10.616;2023-03-26T14:07:40;95357.06;;;9.11;100.00
57628;BME280;43451;49.060;10.616;2023-03-26T14:15:13;95361.97;;;10.32;100.00
57628;BME280;43451;49.060;10.616;2023-03-26T14:25:38;95336.03;;;10.93;89.73
57628;BME280;43451;49.060;10.616;2023-03-26T14:33:31;95338.63;;;11.42;84.34
57628;BME280;43451;49.060;10.616;2023-03-26T14:53:45;95317.19;;;11.86;84.72
57628;BME280;43451;49.060;10.616;2023-03-26T14:59:06;95294.31;;;11.29;66.48
57628;BME280;43451;49.060;10.616;2023-03-26T15:10:13;95293.75;;;11.76;68.72
57628;BME280;43451;49.060;10.616;2023-03-26T15:49:00;95283.81;;;11.02;68.12
57628;BME280;43451;49.060;10.616;2023-03-26T15:51:37;95287.53;;;11.08;69.51
57628;BME280;43451;49.060;10.616;2023-03-26T15:54:27;95284.56;;;11.02;69.72
57628;BME280;43451;49.060;10.616;2023-03-26T15:56:56;95284.97;;;10.72;72.55
57628;BME280;43451;49.060;10.616;2023-03-26T16:04:44;95296.38;;;10.50;74.73
57628;BME280;43451;49.060;10.616;2023-03-26T16:07:23;95291.19;;;10.39;78.31
57628;BME280;43451;49.060;10.616;2023-03-26T16:10:09;95287.16;;;10.31;75.65
57628;BME280;43451;49.060;10.616;2023-03-26T16:20:30;95306.13;;;9.79;77.20
57628;BME280;43451;49.060;10.616;2023-03-26T16:23:01;95307.66;;;9.80;74.01
57628;BME280;43451;49.060;10.616;2023-03-26T16:25:31;95309.16;;;9.64;81.72
57628;BME280;43451;49.060;10.616;2023-03-26T16:30:34;95311.81;;;9.68;79.17
57628;BME280;43451;49.060;10.616;2023-03-26T16:33:13;95325.69;;;9.70;75.08
57628;BME280;43451;49.060;10.616;2023-03-26T16:35:40;95319.88;;;9.51;76.01
57628;BME280;43451;49.060;10.616;2023-03-26T16:38:12;95313.91;;;9.40;73.39
57628;BME280;43451;49.060;10.616;2023-03-26T16:40:49;95324.81;;;9.37;75.35
57628;BME280;43451;49.060;10.616;2023-03-26T16:48:31;95352.97;;;8.79;87.14
57628;BME280;43451;49.060;10.616;2023-03-26T16:59:25;95378.91;;;8.26;98.97
57628;BME280;43451;49.060;10.616;2023-03-26T17:01:39;95377.47;;;8.18;100.00
57628;BME280;43451;49.060;10.616;2023-03-26T17:04:18;95379.72;;;7.96;100.00
57628;BME280;43451;49.060;10.616;2023-03-26T17:22:34;95374.69;;;7.67;100.00
57628;BME280;43451;49.060;10.616;2023-03-26T17:38:00;95381.25;;;7.36;100.00
57628;BME280;43451;49.060;10.616;2023-03-26T17:43:07;95396.66;;;7.35;100.00
57628;BME280;43451;49.060;10.616;2023-03-26T17:45:35;95399.91;;;7.19;100.00
57628;BME280;43451;49.060;10.616;2023-03-26T17:48:08;95411.94;;;7.15;100.00
57628;BME280;43451;49.060;10.616;2023-03-26T17:53:26;95406.22;;;7.06;100.00
57628;BME280;43451;49.060;10.616;2023-03-26T17:55:52;95412.88;;;6.94;100.00
57628;BME280;43451;49.060;10.616;2023-03-26T18:01:02;95406.81;;;6.86;100.00
57628;BME280;43451;49.060;10.616;2023-03-26T18:03:34;95415.00;;;6.72;100.00
57628;BME280;43451;49.060;10.616;2023-03-26T18:06:07;95420.78;;;6.74;100.00
57628;BME280;43451;49.060;10.616;2023-03-26T18:18:59;95440.59;;;6.57;100.00
57628;BME280;43451;49.060;10.616;2023-03-26T18:23:51;95436.00;;;6.46;100.00
57628;BME280;43451;49.060;10.616;2023-03-26T18:26:31;95436.81;;;6.40;100.00
57628;BME280;43451;49.060;10.616;2023-03-26T18:29:43;95444.16;;;6.39;100.00
57628;BME280;43451;49.060;10.616;2023-03-26T18:31:42;95432.91;;;6.51;100.00
57628;BME280;43451;49.060;10.616;2023-03-26T18:34:16;95433.38;;;6.39;100.00
57628;BME280;43451;49.060;10.616;2023-03-26T18:39:25;95436.84;;;6.36;100.00
57628;BME280;43451;49.060;10.616;2023-03-26T18:41:50;95436.00;;;6.46;100.00
57628;BME280;43451;49.060;10.616;2023-03-26T18:44:16;95432.34;;;6.19;100.00
57628;BME280;43451;49.060;10.616;2023-03-26T18:46:43;95453.06;;;6.33;100.00
57628;BME280;43451;49.060;10.616;2023-03-26T18:49:12;95454.63;;;6.26;100.00
57628;BME280;43451;49.060;10.616;2023-03-26T18:51:39;95449.66;;;6.25;100.00
57628;BME280;43451;49.060;10.616;2023-03-26T18:54:04;95447.84;;;6.00;100.00
57628;BME280;43451;49.060;10.616;2023-03-26T18:58:57;95452.03;;;6.09;100.00
57628;BME280;43451;49.060;10.616;2023-03-26T19:01:24;95450.94;;;5.95;100.00
57628;BME280;43451;49.060;10.616;2023-03-26T19:03:49;95461.25;;;6.15;100.00
57628;BME280;43451;49.060;10.616;2023-03-26T19:06:15;95465.16;;;6.07;100.00
57628;BME280;43451;49.060;10.616;2023-03-26T19:08:41;95443.25;;;5.97;100.00
57628;BME280;43451;49.060;10.616;2023-03-26T19:11:08;95449.41;;;5.94;100.00
57628;BME280;43451;49.060;10.616;2023-03-26T19:13:35;95453.63;;;5.95;100.00
57628;BME280;43451;49.060;10.616;2023-03-26T19:16:06;95437.06;;;5.90;100.00
57628;BME280;43451;49.060;10.616;2023-03-26T19:18:34;95440.16;;;5.95;100.00
57628;BME280;43451;49.060;10.616;2023-03-26T19:21:01;95437.84;;;5.90;100.00
57628;BME280;43451;49.060;10.616;2023-03-26T19:23:37;95444.44;;;5.82;100.00
57628;BME280;43451;49.060;10.616;2023-03-26T19:26:04;95422.53;;;5.73;100.00